Time;durP1;ratioP1;P1;durP2;ratioP2;P2;SDS_P1;SDS_P2;PMS_P1;PMS_P2;Temp;Humidity;BMP_temperature;BMP_pressure;BME280_temperature;BME280_humidity;BME280_pressure;Samples;Min_cycle;Max_cycle;Signal;HPM_P1;HPM_P2
2021/06/29 00:01:29;;;;;;;8.23;4.60;;;17.30;99.90;;;;;;5058346;28;20102;-67
2021/06/29 00:03:56;;;;;;;4.25;3.28;;;17.30;99.90;;;;;;5055035;28;20068;-68
2021/06/29 00:06:23;;;;;;;7.50;4.47;;;17.20;99.90;;;;;;5057129;28;20194;-65
2021/06/29 00:08:50;;;;;;;5.70;3.80;;;17.20;99.90;;;;;;5056730;28;20410;-67
2021/06/29 00:11:23;;;;;;;3.83;3.53;;;17.20;99.90;;;;;;5059425;28;20048;-67
2021/06/29 00:13:50;;;;;;;3.50;2.90;;;17.20;99.90;;;;;;5058052;28;20087;-67
2021/06/29 00:16:17;;;;;;;3.92;3.35;;;17.10;99.90;;;;;;5061170;28;20222;-67
2021/06/29 00:18:44;;;;;;;3.47;3.17;;;17.10;99.90;;;;;;5060983;28;20670;-68
2021/06/29 00:21:11;;;;;;;3.92;3.63;;;17.20;99.90;;;;;;5061824;28;20131;-67
2021/06/29 00:23:38;;;;;;;3.10;2.83;;;17.10;99.90;;;;;;5058842;28;20052;-68
2021/06/29 00:26:07;;;;;;;3.63;3.03;;;17.20;99.90;;;;;;5060982;28;20148;-65
2021/06/29 00:28:35;;;;;;;3.65;3.35;;;17.10;99.90;;;;;;5060447;28;20169;-68
2021/06/29 00:31:03;;;;;;;2.97;2.78;;;17.10;99.90;;;;;;5061208;28;20051;-66
2021/06/29 00:33:30;;;;;;;3.70;3.40;;;17.10;99.90;;;;;;5058741;28;20079;-65
2021/06/29 00:35:57;;;;;;;4.03;3.55;;;17.10;99.90;;;;;;5058887;28;20076;-66
2021/06/29 00:38:23;;;;;;;3.33;3.03;;;17.10;99.90;;;;;;5059944;28;20072;-68
2021/06/29 00:40:52;;;;;;;3.38;3.08;;;17.00;99.90;;;;;;5059567;28;20072;-66
2021/06/29 00:43:19;;;;;;;5.20;4.15;;;17.10;99.90;;;;;;5050808;28;20094;-64
2021/06/29 00:45:46;;;;;;;3.67;2.97;;;17.10;99.90;;;;;;5058342;28;21081;-64
2021/06/29 00:48:13;;;;;;;9.45;4.40;;;17.00;99.90;;;;;;5059579;28;20048;-66
2021/06/29 00:50:42;;;;;;;3.63;3.30;;;17.00;99.90;;;;;;5060665;28;20121;-65
2021/06/29 00:53:12;;;;;;;3.40;3.15;;;17.00;99.90;;;;;;5059700;28;20056;-65
2021/06/29 00:55:41;;;;;;;4.53;4.22;;;17.00;99.90;;;;;;5058091;28;20150;-65
2021/06/29 00:58:09;;;;;;;4.28;3.70;;;17.00;99.90;;;;;;5060208;28;20504;-66
2021/06/29 01:00:38;;;;;;;3.72;3.40;;;17.00;99.90;;;;;;5060495;28;20659;-67
2021/06/29 01:03:05;;;;;;;4.72;3.63;;;17.00;99.90;;;;;;5059063;28;20136;-66
2021/06/29 01:05:32;;;;;;;5.80;3.47;;;17.00;99.90;;;;;;5059278;28;20050;-66
2021/06/29 01:07:59;;;;;;;5.47;4.00;;;17.00;99.90;;;;;;5058047;28;20036;-66
2021/06/29 01:10:27;;;;;;;4.00;3.60;;;16.90;99.90;;;;;;5059571;28;20171;-64
2021/06/29 01:12:54;;;;;;;7.25;6.65;;;16.90;99.90;;;;;;5059891;28;20057;-66
2021/06/29 01:15:25;;;;;;;5.28;4.53;;;16.90;99.90;;;;;;5059776;28;20378;-66
2021/06/29 01:17:53;;;;;;;5.38;4.97;;;16.90;99.90;;;;;;5057494;28;20047;-67
2021/06/29 01:20:27;;;;;;;4.95;4.55;;;16.90;99.90;;;;;;5059416;28;20043;-67
2021/06/29 01:23:09;;;;;;;4.50;4.13;;;16.90;99.90;;;;;;5059850;28;20564;-65
2021/06/29 01:25:36;;;;;;;5.15;4.65;;;16.90;99.90;;;;;;5058632;28;20080;-66
2021/06/29 01:31:06;;;;;;;5.22;4.60;;;16.80;99.90;;;;;;5056999;28;20139;-67
2021/06/29 01:33:33;;;;;;;5.65;4.70;;;16.80;99.90;;;;;;5060242;28;20040;-64
2021/06/29 01:36:00;;;;;;;6.03;5.43;;;16.80;99.90;;;;;;5056617;28;20070;-64
2021/06/29 01:38:28;;;;;;;6.97;6.38;;;16.80;99.90;;;;;;5056792;28;20409;-68
2021/06/29 01:40:54;;;;;;;5.60;5.05;;;16.80;99.90;;;;;;5059612;28;20751;-65
2021/06/29 01:43:26;;;;;;;7.07;5.93;;;16.90;99.90;;;;;;5056862;28;20117;-68
2021/06/29 01:45:54;;;;;;;8.07;6.00;;;16.90;99.90;;;;;;5059270;28;20052;-68
2021/06/29 01:48:24;;;;;;;5.30;4.90;;;16.90;99.90;;;;;;5058476;28;20067;-67
2021/06/29 01:50:53;;;;;;;7.20;6.50;;;16.80;99.90;;;;;;5059315;28;20120;-67
2021/06/29 01:53:20;;;;;;;5.55;5.05;;;16.80;99.90;;;;;;5056612;28;20574;-66
2021/06/29 01:55:47;;;;;;;10.13;7.38;;;16.70;99.90;;;;;;5057539;28;20147;-67
2021/06/29 01:58:21;;;;;;;6.90;6.20;;;16.60;99.90;;;;;;5058915;28;20050;-65
2021/06/29 02:00:50;;;;;;;7.65;6.68;;;16.60;99.90;;;;;;5059761;28;20079;-64
2021/06/29 02:03:17;;;;;;;7.00;6.32;;;16.60;99.90;;;;;;5056986;28;20837;-66
2021/06/29 02:05:44;;;;;;;7.32;5.88;;;16.60;99.90;;;;;;5057636;28;20131;-66
2021/06/29 02:08:11;;;;;;;7.80;5.35;;;16.60;99.90;;;;;;5057114;28;20149;-66
2021/06/29 02:10:38;;;;;;;6.55;5.85;;;16.60;99.90;;;;;;5058987;28;20044;-64
2021/06/29 02:13:05;;;;;;;6.72;6.13;;;16.60;99.90;;;;;;5058394;28;20194;-66
2021/06/29 02:15:32;;;;;;;6.65;5.72;;;16.60;99.90;;;;;;5059830;28;20265;-64
2021/06/29 02:17:59;;;;;;;9.13;7.60;;;16.60;99.90;;;;;;5057130;28;20071;-67
2021/06/29 02:20:26;;;;;;;6.63;6.05;;;16.60;99.90;;;;;;5058596;28;20453;-66
2021/06/29 02:22:53;;;;;;;7.82;7.13;;;16.60;99.90;;;;;;5057844;28;20525;-65
2021/06/29 02:25:21;;;;;;;9.88;7.68;;;16.60;99.90;;;;;;5057361;28;20048;-65
2021/06/29 02:27:48;;;;;;;10.60;8.13;;;16.60;99.90;;;;;;5057796;28;20875;-65
2021/06/29 02:30:15;;;;;;;8.70;7.00;;;16.70;99.90;;;;;;5056986;28;20049;-66
2021/06/29 02:32:42;;;;;;;9.43;7.18;;;16.70;99.90;;;;;;5059729;28;20056;-66
2021/06/29 02:35:09;;;;;;;9.18;7.82;;;16.70;99.90;;;;;;5056321;28;20159;-66
2021/06/29 02:37:36;;;;;;;9.20;8.40;;;16.70;99.90;;;;;;5058646;28;21033;-64
2021/06/29 02:40:06;;;;;;;10.23;7.47;;;16.70;99.90;;;;;;5054364;28;20090;-66
2021/06/29 02:42:33;;;;;;;9.35;8.43;;;16.80;99.90;;;;;;5057864;28;20147;-66
2021/06/29 02:45:06;;;;;;;8.60;7.78;;;16.80;99.90;;;;;;5058513;28;20181;-67
2021/06/29 02:47:37;;;;;;;9.55;6.97;;;16.90;99.90;;;;;;5057995;28;20052;-68
2021/06/29 02:50:07;;;;;;;7.28;6.63;;;16.90;99.90;;;;;;5057887;28;20292;-64
2021/06/29 02:52:35;;;;;;;7.82;7.15;;;16.90;99.90;;;;;;5057102;28;20051;-64
2021/06/29 02:55:05;;;;;;;10.07;8.25;;;17.00;99.90;;;;;;5059063;28;20865;-65
2021/06/29 02:57:32;;;;;;;;;;;17.00;99.90;;;;;;5060831;28;20102;-66
2021/06/29 02:59:59;;;;;;;9.57;7.95;;;17.00;99.90;;;;;;5057573;28;20035;-66
2021/06/29 03:02:26;;;;;;;11.32;8.48;;;17.10;99.90;;;;;;5059295;28;20083;-65
2021/06/29 03:04:53;;;;;;;9.43;8.25;;;17.10;99.90;;;;;;5060179;28;20534;-63
2021/06/29 03:07:21;;;;;;;9.63;8.48;;;17.10;99.90;;;;;;5058443;28;20044;-65
2021/06/29 03:09:48;;;;;;;8.23;7.45;;;17.10;99.90;;;;;;5047335;28;20071;-65
2021/06/29 03:12:15;;;;;;;7.70;6.72;;;17.10;99.90;;;;;;5059473;28;20049;-64
2021/06/29 03:14:42;;;;;;;7.90;7.05;;;17.20;99.90;;;;;;5059883;28;20808;-64
2021/06/29 03:17:09;;;;;;;9.05;8.15;;;17.20;99.90;;;;;;5059043;28;20068;-66
2021/06/29 03:19:37;;;;;;;11.18;8.05;;;17.30;99.90;;;;;;5059730;28;20052;-67
2021/06/29 03:22:04;;;;;;;10.55;8.82;;;17.30;99.90;;;;;;5056885;28;20135;-68
2021/06/29 03:24:31;;;;;;;10.73;7.78;;;17.40;99.90;;;;;;5059620;28;20114;-66
2021/06/29 03:26:58;;;;;;;9.95;7.82;;;17.40;99.90;;;;;;5056254;28;20056;-64
2021/06/29 03:29:25;;;;;;;15.02;9.23;;;17.50;99.90;;;;;;5053695;28;20197;-64
2021/06/29 03:31:52;;;;;;;9.52;8.63;;;17.50;99.90;;;;;;5054217;28;20049;-66
2021/06/29 03:34:23;;;;;;;7.55;6.85;;;17.60;99.90;;;;;;5060384;28;20052;-65
2021/06/29 03:36:50;;;;;;;8.63;7.75;;;17.60;99.90;;;;;;5057272;28;20040;-65
2021/06/29 03:39:18;;;;;;;12.90;8.57;;;17.70;99.90;;;;;;5059024;28;20052;-66
2021/06/29 03:41:49;;;;;;;10.45;9.48;;;17.70;99.90;;;;;;5087612;28;20059;-65
2021/06/29 03:44:16;;;;;;;10.98;7.75;;;17.80;99.90;;;;;;5059566;28;20051;-65
2021/06/29 03:46:44;;;;;;;7.90;6.40;;;17.90;99.90;;;;;;5091086;27;20051;-63
2021/06/29 03:49:12;;;;;;;10.70;7.63;;;17.90;99.90;;;;;;5063683;28;20053;-64
2021/06/29 03:51:39;;;;;;;10.38;7.85;;;17.90;99.90;;;;;;5062987;28;20165;-63
2021/06/29 03:54:06;;;;;;;11.23;8.32;;;18.00;99.90;;;;;;5062731;28;20060;-65
2021/06/29 03:56:33;;;;;;;9.98;7.18;;;18.00;99.90;;;;;;5062083;28;21719;-66
2021/06/29 03:59:09;;;;;;;9.98;8.95;;;18.10;99.90;;;;;;5061530;28;20072;-66
2021/06/29 04:01:36;;;;;;;7.68;6.95;;;18.20;99.90;;;;;;5062263;28;20040;-65
2021/06/29 04:04:04;;;;;;;7.47;6.72;;;18.30;99.90;;;;;;5059777;28;20036;-69
2021/06/29 04:06:33;;;;;;;7.85;6.22;;;18.30;99.90;;;;;;5062483;28;20120;-67
2021/06/29 04:09:02;;;;;;;8.55;7.75;;;18.40;99.90;;;;;;5060674;28;20056;-68
2021/06/29 04:11:29;;;;;;;8.15;7.35;;;18.50;99.90;;;;;;5061333;28;20044;-66
2021/06/29 04:13:57;;;;;;;10.88;7.75;;;18.50;99.90;;;;;;5059716;28;20565;-65
2021/06/29 04:16:24;;;;;;;10.07;7.28;;;18.60;99.90;;;;;;5062173;28;20052;-65
2021/06/29 04:18:51;;;;;;;13.43;8.52;;;18.60;99.90;;;;;;5050692;28;20067;-65
2021/06/29 04:21:23;;;;;;;6.93;6.30;;;18.70;99.90;;;;;;5061663;28;20059;-67
2021/06/29 04:23:50;;;;;;;12.30;7.25;;;18.70;99.90;;;;;;5059939;28;20214;-67
2021/06/29 04:26:17;;;;;;;7.60;6.50;;;18.70;99.90;;;;;;5061106;28;20133;-65
2021/06/29 04:28:47;;;;;;;9.15;7.60;;;18.80;99.90;;;;;;5062287;28;20044;-64
2021/06/29 04:31:17;;;;;;;7.32;6.28;;;18.90;99.90;;;;;;5061779;28;20192;-64
2021/06/29 04:33:44;;;;;;;8.03;6.43;;;18.90;99.90;;;;;;5060662;28;20036;-64
2021/06/29 04:36:12;;;;;;;7.30;6.60;;;19.00;99.90;;;;;;5059982;28;20079;-68
2021/06/29 04:38:40;;;;;;;10.25;7.00;;;19.00;99.90;;;;;;5060984;28;20163;-65
2021/06/29 04:41:07;;;;;;;6.82;6.22;;;19.10;99.90;;;;;;5061622;28;20044;-66
2021/06/29 04:43:38;;;;;;;6.50;5.90;;;19.20;99.90;;;;;;5061988;28;20072;-65
2021/06/29 04:46:05;;;;;;;;;;;19.20;99.90;;;;;;5059963;28;20056;-67
2021/06/29 04:48:34;;;;;;;5.82;5.32;;;19.20;99.90;;;;;;5051345;28;19923;-67
2021/06/29 04:51:02;;;;;;;7.32;6.22;;;19.30;99.90;;;;;;5060531;28;20141;-64
2021/06/29 04:53:29;;;;;;;6.50;5.93;;;19.40;99.90;;;;;;5061786;28;21387;-67
2021/06/29 04:55:56;;;;;;;6.35;5.75;;;19.50;99.90;;;;;;5059712;28;20040;-66
2021/06/29 04:58:23;;;;;;;7.18;5.70;;;19.50;99.90;;;;;;5061553;28;20056;-65
2021/06/29 05:00:50;;;;;;;9.45;6.22;;;19.50;99.90;;;;;;5059480;28;20044;-66
2021/06/29 05:03:17;;;;;;;5.90;5.38;;;19.60;99.90;;;;;;5060953;28;20044;-66
2021/06/29 05:05:45;;;;;;;7.80;5.40;;;19.60;99.90;;;;;;5058967;28;20052;-67
2021/06/29 05:08:13;;;;;;;6.18;5.05;;;19.70;99.90;;;;;;5059552;28;20060;-64
2021/06/29 05:10:39;;;;;;;5.35;4.88;;;19.70;99.90;;;;;;5059472;28;20048;-68
2021/06/29 05:13:06;;;;;;;5.07;4.68;;;19.80;99.90;;;;;;5061849;28;20047;-67
2021/06/29 05:15:33;;;;;;;6.05;5.53;;;19.90;99.90;;;;;;5058124;28;20047;-66
2021/06/29 05:18:00;;;;;;;6.35;5.43;;;20.00;99.90;;;;;;5060073;28;20048;-64
2021/06/29 05:20:27;;;;;;;6.25;5.63;;;20.10;99.90;;;;;;5060179;28;20040;-64
2021/06/29 05:22:55;;;;;;;5.90;5.30;;;20.20;99.90;;;;;;5058497;28;20666;-66
2021/06/29 05:25:22;;;;;;;4.75;4.35;;;20.30;99.90;;;;;;5061080;28;20060;-67
2021/06/29 05:27:49;;;;;;;9.23;4.95;;;20.40;99.90;;;;;;5057648;28;20047;-68
2021/06/29 05:30:16;;;;;;;6.97;5.30;;;20.50;99.90;;;;;;5061420;28;20094;-65
2021/06/29 05:32:43;;;;;;;10.65;5.78;;;20.60;99.90;;;;;;5059587;28;20788;-67
2021/06/29 05:35:10;;;;;;;7.15;6.03;;;20.70;99.90;;;;;;5060700;28;20126;-65
2021/06/29 05:37:37;;;;;;;6.28;5.68;;;20.80;99.90;;;;;;5058717;28;20076;-68
2021/06/29 05:40:05;;;;;;;6.25;4.10;;;20.80;99.90;;;;;;5055581;28;20218;-65
2021/06/29 05:42:32;;;;;;;5.35;4.30;;;20.80;99.90;;;;;;5058248;28;20140;-66
2021/06/29 05:44:59;;;;;;;5.72;4.35;;;20.80;99.90;;;;;;5061743;28;20135;-65
2021/06/29 05:47:26;;;;;;;5.20;4.80;;;20.80;99.90;;;;;;5059930;28;20056;-64
2021/06/29 05:49:53;;;;;;;5.95;4.60;;;20.90;99.90;;;;;;5068878;28;20114;-66
2021/06/29 05:52:20;;;;;;;5.10;4.63;;;20.90;99.90;;;;;;5061283;28;20134;-66
2021/06/29 05:54:47;;;;;;;6.15;5.65;;;21.00;99.90;;;;;;5060647;28;20067;-66
2021/06/29 05:57:14;;;;;;;5.72;5.20;;;21.10;99.90;;;;;;5059756;28;20053;-70
2021/06/29 05:59:42;;;;;;;6.15;4.93;;;21.10;99.90;;;;;;5058136;28;20075;-70
2021/06/29 06:02:09;;;;;;;4.65;4.25;;;21.20;99.90;;;;;;5059875;28;20067;-66
2021/06/29 06:04:37;;;;;;;5.22;4.72;;;21.20;99.90;;;;;;5059152;28;20044;-67
2021/06/29 06:07:14;;;;;;;5.22;4.70;;;21.40;99.90;;;;;;2717951;28;10003548;-64
2021/06/29 06:09:41;;;;;;;4.38;3.97;;;21.50;99.90;;;;;;2949778;28;10001932;-68
2021/06/29 06:12:08;;;;;;;8.02;5.88;;;21.70;99.90;;;;;;5038271;28;20071;-64
2021/06/29 06:14:35;;;;;;;5.28;4.65;;;21.70;99.90;;;;;;5037407;28;20059;-67
2021/06/29 06:17:03;;;;;;;5.15;4.65;;;21.70;99.90;;;;;;5038652;28;20076;-68
2021/06/29 06:19:30;;;;;;;2.92;2.72;;;21.70;99.90;;;;;;5038060;28;20076;-66
2021/06/29 06:21:56;;;;;;;6.90;4.03;;;21.40;99.90;;;;;;5035697;28;20095;-66
2021/06/29 06:24:23;;;;;;;2.88;2.67;;;21.30;99.90;;;;;;5038920;28;20543;-66
2021/06/29 06:26:50;;;;;;;4.40;3.25;;;21.20;99.90;;;;;;5037136;28;20929;-64
2021/06/29 06:29:17;;;;;;;6.38;3.72;;;21.20;99.90;;;;;;5038198;28;20064;-68
2021/06/29 06:31:44;;;;;;;3.78;3.45;;;21.20;99.90;;;;;;5036801;28;20090;-69
2021/06/29 06:34:11;;;;;;;4.13;3.70;;;21.20;99.90;;;;;;5038217;28;20053;-63
2021/06/29 06:36:40;;;;;;;6.07;5.53;;;21.20;99.90;;;;;;5038922;28;20053;-66
2021/06/29 06:39:08;;;;;;;5.93;4.38;;;21.20;99.90;;;;;;5037444;28;20041;-63
2021/06/29 06:41:35;;;;;;;3.53;3.22;;;21.10;99.90;;;;;;5046939;28;20137;-67
2021/06/29 06:44:02;;;;;;;5.60;3.40;;;21.10;99.90;;;;;;5035765;28;20053;-67
2021/06/29 06:46:29;;;;;;;3.72;3.42;;;21.10;99.90;;;;;;5039338;28;20148;-68
2021/06/29 06:48:56;;;;;;;4.05;3.45;;;21.10;99.90;;;;;;5037854;28;20127;-66
2021/06/29 06:51:32;;;;;;;4.40;4.00;;;21.20;99.90;;;;;;5037656;28;20122;-65
2021/06/29 06:54:00;;;;;;;4.55;4.22;;;21.20;99.90;;;;;;5037369;28;20056;-65
2021/06/29 06:56:26;;;;;;;5.93;4.38;;;21.20;99.90;;;;;;5024615;28;20115;-66
2021/06/29 06:58:53;;;;;;;7.53;6.03;;;21.20;99.90;;;;;;5038502;28;20479;-66
2021/06/29 07:01:20;;;;;;;7.70;4.95;;;21.10;99.90;;;;;;5038857;28;20049;-65
2021/06/29 07:03:47;;;;;;;5.25;4.57;;;21.10;99.90;;;;;;5044121;28;20045;-64
2021/06/29 07:06:14;;;;;;;8.68;5.35;;;21.10;99.90;;;;;;5036727;28;20056;-67
2021/06/29 07:08:42;;;;;;;6.13;5.47;;;21.10;99.90;;;;;;5037455;28;20053;-64
2021/06/29 07:11:10;;;;;;;9.13;6.15;;;21.10;99.90;;;;;;5038398;28;20499;-65
2021/06/29 07:13:37;;;;;;;5.13;4.63;;;21.20;99.90;;;;;;5037107;28;20075;-66
2021/06/29 07:16:04;;;;;;;5.57;4.88;;;21.20;99.90;;;;;;5037008;28;20485;-65
2021/06/29 07:18:31;;;;;;;6.55;5.95;;;21.20;99.90;;;;;;5036903;28;20056;-63
2021/06/29 07:20:58;;;;;;;9.80;6.57;;;21.20;99.90;;;;;;5039558;28;20052;-66
2021/06/29 07:23:25;;;;;;;7.57;5.63;;;21.10;99.90;;;;;;5037034;28;20087;-66
2021/06/29 07:25:52;;;;;;;13.75;7.32;;;21.10;99.90;;;;;;5038767;28;20554;-67
2021/06/29 07:28:19;;;;;;;6.88;6.10;;;21.10;99.90;;;;;;5039704;28;20384;-64
2021/06/29 07:30:46;;;;;;;7.43;6.82;;;21.10;99.90;;;;;;5038501;28;20045;-66
2021/06/29 07:33:13;;;;;;;7.78;6.07;;;21.10;99.90;;;;;;5039317;28;20133;-66
2021/06/29 07:35:40;;;;;;;7.75;6.95;;;21.10;99.90;;;;;;5037177;28;20399;-64
2021/06/29 07:38:08;;;;;;;8.57;7.88;;;21.10;99.90;;;;;;5038492;28;20079;-63
2021/06/29 07:40:35;;;;;;;10.27;8.68;;;21.20;99.90;;;;;;5039925;28;20052;-64
2021/06/29 07:43:03;;;;;;;16.55;8.70;;;21.30;99.90;;;;;;5039370;28;20088;-63
2021/06/29 07:45:31;;;;;;;8.85;7.95;;;21.20;99.90;;;;;;5039037;28;20057;-65
2021/06/29 07:48:01;;;;;;;10.75;7.80;;;21.30;99.90;;;;;;5037437;28;20073;-68
2021/06/29 07:50:32;;;;;;;8.32;7.40;;;21.30;99.90;;;;;;5040291;28;20126;-66
2021/06/29 07:53:01;;;;;;;8.52;7.72;;;21.30;99.90;;;;;;5038734;28;20411;-66
2021/06/29 07:55:29;;;;;;;7.95;7.25;;;21.20;99.90;;;;;;5039558;28;20049;-66
2021/06/29 07:57:57;;;;;;;8.45;7.45;;;21.20;99.90;;;;;;5036294;28;20453;-63
2021/06/29 08:00:24;;;;;;;8.75;7.20;;;21.20;99.90;;;;;;5040896;28;20049;-64
2021/06/29 08:02:52;;;;;;;10.00;9.02;;;21.30;99.90;;;;;;5036443;28;20044;-66
2021/06/29 08:05:19;;;;;;;9.40;8.48;;;21.30;99.90;;;;;;5035862;28;20053;-64
2021/06/29 08:07:46;;;;;;;10.75;8.52;;;21.30;99.90;;;;;;5026182;28;20045;-67
2021/06/29 08:10:13;;;;;;;10.35;9.45;;;21.30;99.90;;;;;;5033260;28;20730;-64
2021/06/29 08:12:41;;;;;;;8.05;7.35;;;21.40;99.90;;;;;;5033757;28;20056;-65
2021/06/29 08:15:09;;;;;;;7.93;7.22;;;21.50;99.90;;;;;;5035135;28;20220;-68
2021/06/29 08:17:41;;;;;;;7.70;6.63;;;21.60;99.90;;;;;;5030697;28;20052;-66
2021/06/29 08:20:09;;;;;;;8.23;7.13;;;21.50;99.90;;;;;;5032029;28;20069;-67
2021/06/29 08:22:36;;;;;;;8.85;7.68;;;21.50;99.90;;;;;;5033002;28;20076;-67
2021/06/29 08:25:07;;;;;;;12.43;8.40;;;21.40;99.90;;;;;;5033531;28;20103;-63
2021/06/29 08:27:34;;;;;;;10.02;8.70;;;21.30;99.90;;;;;;5041534;28;20549;-65
2021/06/29 08:30:05;;;;;;;12.20;10.55;;;21.20;99.90;;;;;;5033046;28;20048;-66
2021/06/29 08:32:32;;;;;;;10.07;9.10;;;21.30;99.90;;;;;;5036111;28;20049;-67
2021/06/29 08:34:59;;;;;;;9.30;8.43;;;21.40;99.90;;;;;;5035151;28;20072;-64
2021/06/29 08:37:26;;;;;;;9.38;8.48;;;21.40;99.90;;;;;;5036331;28;20072;-66
2021/06/29 08:39:55;;;;;;;9.20;8.40;;;21.60;99.90;;;;;;5035648;28;21048;-65
2021/06/29 08:42:22;;;;;;;7.45;6.75;;;21.60;99.90;;;;;;5038003;28;20040;-67
2021/06/29 08:44:49;;;;;;;8.77;8.07;;;21.60;99.90;;;;;;5038269;28;20449;-65
2021/06/29 08:47:16;;;;;;;8.73;7.93;;;21.60;99.90;;;;;;5032328;28;20477;-64
2021/06/29 08:49:44;;;;;;;9.15;8.20;;;21.60;99.90;;;;;;5037595;28;20052;-64
2021/06/29 08:52:12;;;;;;;8.57;7.78;;;21.60;99.90;;;;;;5039330;28;20208;-63
2021/06/29 08:54:54;;;;;;;11.50;7.75;;;21.50;99.90;;;;;;5039852;28;21005;-64
2021/06/29 08:57:21;;;;;;;10.52;7.82;;;21.60;99.90;;;;;;5038465;28;20102;-64
2021/06/29 08:59:48;;;;;;;9.05;8.23;;;21.60;99.90;;;;;;5037429;28;20279;-67
2021/06/29 09:02:17;;;;;;;9.23;7.70;;;21.70;99.90;;;;;;5037683;28;20052;-64
2021/06/29 09:04:54;;;;;;;9.50;7.43;;;21.70;99.90;;;;;;5038549;28;20044;-65
2021/06/29 09:07:29;;;;;;;9.95;7.68;;;21.70;99.90;;;;;;5036509;28;20136;-65
2021/06/29 09:10:02;;;;;;;9.15;8.35;;;21.70;99.90;;;;;;5034663;28;20053;-66
2021/06/29 09:12:50;;;;;;;10.70;9.80;;;21.90;99.90;;;;;;5038609;28;20056;-66
2021/06/29 09:15:52;;;;;;;9.75;8.02;;;22.00;99.90;;;;;;5035426;28;20057;-63
2021/06/29 09:18:26;;;;;;;8.18;7.38;;;22.00;99.90;;;;;;5033085;28;20089;-69
2021/06/29 09:21:00;;;;;;;8.75;8.05;;;22.00;99.90;;;;;;5033296;28;20049;-67
2021/06/29 09:23:51;;;;;;;11.82;8.27;;;22.00;99.90;;;;;;5036043;28;20045;-64
2021/06/29 09:26:23;;;;;;;9.40;8.40;;;22.00;99.90;;;;;;5036478;28;20048;-65
2021/06/29 09:29:02;;;;;;;7.97;7.25;;;22.20;99.90;;;;;;5039415;28;20100;-67
2021/06/29 09:31:32;;;;;;;11.77;8.20;;;22.10;99.90;;;;;;5036310;28;20060;-69
2021/06/29 09:34:00;;;;;;;;;;;22.10;99.90;;;;;;5039006;28;22271;-67
2021/06/29 09:36:29;;;;;;;9.13;7.78;;;22.20;99.90;;;;;;5037150;28;20005;-65
2021/06/29 09:38:59;;;;;;;11.48;7.47;;;22.20;99.90;;;;;;5038118;28;20495;-69
2021/06/29 09:41:31;;;;;;;9.85;8.80;;;22.30;99.90;;;;;;5039951;28;20298;-66
2021/06/29 09:44:06;;;;;;;9.13;8.43;;;22.30;99.90;;;;;;5039077;28;20080;-67
2021/06/29 09:46:33;;;;;;;9.82;8.80;;;22.40;99.90;;;;;;5040202;28;20465;-65
2021/06/29 09:49:09;;;;;;;8.95;7.68;;;22.50;99.90;;;;;;5039736;28;20052;-66
2021/06/29 09:51:50;;;;;;;9.95;8.98;;;22.60;99.90;;;;;;5036808;28;20957;-64
2021/06/29 09:54:20;;;;;;;10.25;9.27;;;22.30;99.90;;;;;;5039377;28;20041;-65
2021/06/29 09:56:47;;;;;;;;;;;22.00;99.90;;;;;;5053762;28;20701;-68
2021/06/29 09:59:26;;;;;;;14.95;8.60;;;22.10;99.90;;;;;;5039180;28;19936;-65
2021/06/29 10:02:04;;;;;;;10.68;7.55;;;22.10;99.90;;;;;;5038120;28;20453;-66
2021/06/29 10:04:32;;;;;;;9.50;8.60;;;22.20;99.90;;;;;;5038833;28;20977;-64
2021/06/29 10:07:13;;;;;;;11.95;7.45;;;22.40;99.90;;;;;;5038388;28;20064;-65
2021/06/29 10:09:40;;;;;;;8.77;6.43;;;22.30;99.90;;;;;;5036135;28;20053;-66
2021/06/29 10:12:07;;;;;;;13.88;8.57;;;22.30;99.90;;;;;;5038679;28;20552;-65
2021/06/29 10:14:35;;;;;;;8.68;7.63;;;22.30;99.90;;;;;;5038460;28;20075;-66
2021/06/29 10:17:04;;;;;;;13.18;7.40;;;22.40;99.90;;;;;;5036560;28;20162;-64
2021/06/29 10:19:47;;;;;;;10.68;7.45;;;22.60;99.90;;;;;;5034574;28;20052;-68
2021/06/29 10:22:17;;;;;;;7.15;6.45;;;22.60;99.90;;;;;;5035347;28;20548;-66
2021/06/29 10:24:46;;;;;;;7.53;6.60;;;22.60;99.90;;;;;;5033724;28;20157;-64
2021/06/29 10:27:14;;;;;;;12.32;6.75;;;22.30;99.90;;;;;;5036132;28;20044;-69
2021/06/29 10:29:41;;;;;;;12.45;8.05;;;22.40;99.90;;;;;;5033899;28;20155;-67
2021/06/29 10:32:11;;;;;;;10.98;6.55;;;22.30;99.90;;;;;;5034981;28;20138;-65
2021/06/29 10:34:39;;;;;;;15.88;9.90;;;22.40;99.90;;;;;;5037667;28;20091;-67
2021/06/29 10:37:07;;;;;;;8.10;6.55;;;22.50;99.90;;;;;;5036664;28;20557;-68
2021/06/29 10:39:36;;;;;;;7.97;7.18;;;22.10;99.90;;;;;;5038250;28;20052;-68
2021/06/29 10:42:10;;;;;;;9.40;7.32;;;22.20;99.90;;;;;;5034434;28;20048;-65
2021/06/29 10:44:39;;;;;;;9.07;5.43;;;22.20;99.90;;;;;;5038805;28;20049;-65
2021/06/29 10:47:23;;;;;;;14.00;7.78;;;22.30;99.90;;;;;;5037966;28;20060;-65
2021/06/29 10:49:58;;;;;;;9.18;6.85;;;22.40;99.90;;;;;;5033821;28;20049;-70
2021/06/29 10:52:28;;;;;;;6.88;6.28;;;22.40;99.90;;;;;;5043808;28;20056;-64
2021/06/29 10:54:56;;;;;;;7.18;6.53;;;22.70;99.90;;;;;;5039156;28;21445;-64
2021/06/29 10:57:46;;;;;;;7.72;6.47;;;22.70;99.90;;;;;;5038943;28;21646;-66
2021/06/29 11:00:24;;;;;;;8.73;6.97;;;22.60;99.90;;;;;;5036190;28;20779;-65
2021/06/29 11:02:57;;;;;;;8.45;6.72;;;22.80;99.90;;;;;;5038806;28;20052;-67
2021/06/29 11:05:28;;;;;;;7.22;5.78;;;22.70;99.90;;;;;;5039262;28;20063;-68
2021/06/29 11:08:16;;;;;;;17.85;7.93;;;22.50;99.90;;;;;;5036474;28;20792;-68
2021/06/29 11:10:47;;;;;;;6.25;5.65;;;22.50;99.90;;;;;;5039907;28;20082;-67
2021/06/29 11:13:15;;;;;;;7.22;5.72;;;22.50;99.90;;;;;;5037649;28;20056;-67
2021/06/29 11:15:49;;;;;;;6.93;6.22;;;22.70;99.90;;;;;;5036220;28;20053;-68
2021/06/29 11:18:32;;;;;;;6.70;6.10;;;23.00;99.90;;;;;;5035520;28;20076;-66
2021/06/29 11:21:02;;;;;;;11.68;7.88;;;23.30;99.90;;;;;;5036862;28;20644;-67
2021/06/29 11:23:32;;;;;;;7.85;5.72;;;23.20;99.90;;;;;;5034855;28;20122;-66
2021/06/29 11:26:13;;;;;;;10.48;7.00;;;23.10;99.90;;;;;;5032960;28;20391;-66
2021/06/29 11:29:03;;;;;;;7.20;5.97;;;22.90;99.90;;;;;;5034446;28;20511;-67
2021/06/29 11:31:32;;;;;;;9.15;6.13;;;22.90;99.90;;;;;;5034307;28;20053;-67
2021/06/29 11:34:07;;;;;;;8.07;6.57;;;23.00;99.90;;;;;;5036010;28;22602;-65
2021/06/29 11:36:36;;;;;;;9.32;6.95;;;23.00;99.90;;;;;;5036963;28;20139;-67
2021/06/29 11:39:18;;;;;;;8.02;7.22;;;22.80;99.90;;;;;;5037674;28;21424;-65
2021/06/29 11:42:01;;;;;;;8.27;6.82;;;22.70;99.90;;;;;;5036918;28;20053;-65
2021/06/29 11:44:33;;;;;;;7.53;6.60;;;22.50;99.90;;;;;;5035643;28;20045;-69
2021/06/29 11:47:06;;;;;;;12.93;6.82;;;22.60;99.90;;;;;;5036470;28;20076;-68
2021/06/29 11:49:55;;;;;;;11.02;7.32;;;22.80;99.90;;;;;;5035341;28;20041;-67
2021/06/29 11:52:31;;;;;;;8.70;5.75;;;22.80;99.90;;;;;;5034170;28;20361;-68
2021/06/29 11:55:03;;;;;;;7.20;6.47;;;23.10;99.90;;;;;;5035366;28;20413;-67
2021/06/29 11:57:39;;;;;;;8.20;6.07;;;23.10;99.90;;;;;;5036911;28;20557;-65
2021/06/29 12:00:32;;;;;;;9.27;6.60;;;22.90;99.90;;;;;;5033826;28;20052;-67
2021/06/29 12:03:12;;;;;;;6.47;5.65;;;23.00;99.90;;;;;;5036212;28;20053;-65
2021/06/29 12:05:40;;;;;;;7.00;6.30;;;23.00;99.90;;;;;;5037689;28;20141;-68
2021/06/29 12:08:11;;;;;;;7.97;5.68;;;23.10;99.90;;;;;;5039949;28;20102;-64
2021/06/29 12:10:42;;;;;;;6.90;6.25;;;23.20;99.90;;;;;;5041355;28;20053;-64
2021/06/29 12:13:12;;;;;;;8.18;6.03;;;23.20;99.90;;;;;;5039813;28;20490;-65
2021/06/29 12:15:42;;;;;;;5.95;5.35;;;23.40;99.90;;;;;;5042213;28;20080;-67
2021/06/29 12:18:14;;;;;;;6.57;6.00;;;23.40;99.90;;;;;;5070572;28;20117;-65
2021/06/29 12:20:53;;;;;;;7.20;5.47;;;23.10;99.90;;;;;;5041465;28;20503;-65
2021/06/29 12:23:26;;;;;;;8.55;6.22;;;22.70;99.90;;;;;;5039668;28;20045;-67
2021/06/29 12:25:56;;;;;;;9.70;5.93;;;22.60;99.90;;;;;;4998220;28;20104;-65
2021/06/29 12:28:25;;;;;;;6.47;5.88;;;22.70;99.90;;;;;;4997221;28;20084;-68
2021/06/29 12:30:58;;;;;;;8.65;6.00;;;22.50;99.90;;;;;;4998853;28;20161;-68
2021/06/29 12:33:28;;;;;;;11.80;8.18;;;22.70;99.90;;;;;;4995859;28;20049;-67
2021/06/29 12:35:59;;;;;;;6.75;6.05;;;22.80;99.90;;;;;;4999624;28;20119;-66
2021/06/29 12:38:35;;;;;;;8.88;6.78;;;22.80;99.90;;;;;;4999642;28;20113;-65
2021/06/29 12:41:07;;;;;;;7.88;7.18;;;23.00;99.90;;;;;;5001781;28;20068;-65
2021/06/29 12:43:55;;;;;;;8.98;7.40;;;23.30;99.90;;;;;;5000083;28;20132;-67
2021/06/29 12:46:29;;;;;;;10.00;8.15;;;23.20;99.90;;;;;;5001342;28;20058;-65
2021/06/29 12:49:16;;;;;;;11.35;10.32;;;23.20;99.90;;;;;;4996869;28;20507;-64
2021/06/29 12:51:46;;;;;;;9.07;7.28;;;23.30;99.90;;;;;;4997489;28;20191;-68
2021/06/29 12:54:18;;;;;;;6.35;5.68;;;23.40;99.90;;;;;;5001092;28;20108;-66
2021/06/29 12:56:49;;;;;;;10.07;6.72;;;23.70;99.90;;;;;;4999700;28;20081;-66
2021/06/29 12:59:19;;;;;;;8.00;7.07;;;23.80;99.90;;;;;;5001843;28;20082;-66
2021/06/29 13:01:48;;;;;;;;;;;23.70;99.90;;;;;;4999937;28;20168;-65